createdAt,value
2018-09-29T00:04:54.416Z,0.8
2018-09-29T00:25:43.966Z,0.9
2018-09-29T00:36:20.296Z,0.7
2018-09-29T00:46:34.881Z,1.2
2018-09-29T00:56:48.983Z,0.7
2018-09-29T01:07:55.802Z,1.0
2018-09-29T01:29:11.508Z,0.8
2018-09-29T01:39:33.850Z,0.9
2018-09-29T01:50:05.346Z,0.8
2018-09-29T02:01:29.640Z,1.1
2018-09-29T02:12:12.837Z,1.4
2018-09-29T02:22:42.414Z,0.9
2018-09-29T02:34:50.441Z,2.3
2018-09-29T02:47:45.209Z,2.7
2018-09-29T02:58:55.261Z,3.5
2018-09-29T04:10:19.856Z,0.8
2018-09-29T04:24:22.161Z,1.1
2018-09-29T04:50:44.432Z,1.9
2018-09-29T06:48:06.601Z,4.2
2018-09-29T07:00:57.622Z,3.0
2018-09-29T08:58:37.902Z,1.0
2018-09-29T09:09:39.425Z,1.0
2018-09-29T09:22:30.121Z,1.5
2018-09-29T09:34:27.741Z,0.9
2018-09-29T09:46:11.737Z,1.0
2018-09-29T10:10:20.670Z,1.6
2018-09-29T10:22:53.632Z,1.0
2018-09-29T10:35:26.396Z,1.3
2018-09-29T10:47:27.010Z,0.9
2018-09-29T10:57:41.112Z,0.7
2018-09-29T11:07:55.606Z,1.0
2018-09-29T11:20:17.848Z,1.4
2018-09-29T12:00:05.106Z,0.9
2018-09-29T12:10:50.058Z,0.9
2018-09-29T12:21:03.884Z,1.0
2018-09-29T12:42:56.214Z,0.9
2018-09-29T12:53:10.152Z,0.8
2018-09-29T13:03:24.947Z,0.9
2018-09-29T13:26:15.125Z,1.4
2018-09-29T13:38:14.596Z,1.1
2018-09-29T13:51:00.419Z,0.9
2018-09-29T14:02:45.911Z,1.3
2018-09-29T14:15:45.061Z,0.7
2018-09-29T14:29:13.319Z,1.0
2018-09-29T14:42:53.953Z,1.0
2018-09-29T14:55:10.849Z,1.3
2018-09-29T15:06:34.046Z,2.6
2018-09-29T15:20:23.263Z,1.2
2018-09-29T15:33:54.402Z,1.3
2018-09-29T15:44:59.955Z,1.4
2018-09-29T15:55:55.194Z,1.0
2018-09-29T16:07:46.366Z,0.9
2018-09-29T16:19:01.423Z,1.0
2018-09-29T16:31:36.169Z,1.5
2018-09-29T17:05:06.875Z,0.9
2018-09-29T17:17:16.641Z,3.1
2018-09-29T17:27:30.876Z,1.6
2018-09-29T17:37:45.530Z,1.9
2018-09-29T17:49:18.289Z,3.2
2018-09-29T18:24:11.848Z,4.1
2018-09-29T18:36:48.182Z,5.5
2018-09-29T18:48:25.274Z,5.2
2018-09-29T19:00:07.684Z,4.0
2018-09-29T19:27:31.508Z,3.2
2018-09-29T19:40:02.791Z,4.3
2018-09-29T19:51:29.283Z,2.9
2018-09-29T20:17:00.860Z,2.9
2018-09-29T20:44:12.990Z,4.1
